Time;durP1;ratioP1;P1;durP2;ratioP2;P2;SDS_P1;SDS_P2;PMS_P1;PMS_P2;Temp;Humidity;BMP_temperature;BMP_pressure;BME280_temperature;BME280_humidity;BME280_pressure;Samples;Min_cycle;Max_cycle;Signal;HPM_P1;HPM_P2
2022/10/12 00:00:57;;;;;;;11.03;6.12;;;;;;;8.94;100.00;100168.55;1779542;79;20922;-73
2022/10/12 00:03:23;;;;;;;13.80;6.50;;;;;;;8.84;100.00;100167.59;1767089;79;21538;-75
2022/10/12 00:06:08;;;;;;;13.15;6.92;;;;;;;8.76;100.00;100172.90;1774260;79;21381;-76
2022/10/12 00:08:35;;;;;;;11.03;6.90;;;;;;;8.71;100.00;100174.73;1762666;79;21504;-76
2022/10/12 00:11:02;;;;;;;14.83;6.75;;;;;;;8.65;100.00;100168.39;1775312;80;21497;-76
2022/10/12 00:13:28;;;;;;;10.45;6.85;;;;;;;8.66;100.00;100170.05;1794148;78;21031;-76
2022/10/12 00:15:54;;;;;;;12.85;7.25;;;;;;;8.64;100.00;100175.44;1792323;80;21040;-76
2022/10/12 00:18:21;;;;;;;11.38;6.50;;;;;;;8.58;100.00;100179.13;1777354;78;21023;-75
2022/10/12 00:20:47;;;;;;;;;;;;;;;8.49;100.00;100180.92;1758040;82;21482;-75
2022/10/12 00:23:13;;;;;;;10.78;6.72;;;;;;;8.41;100.00;100183.20;1788554;80;20136;-75
2022/10/12 00:25:40;;;;;;;15.98;6.80;;;;;;;8.29;100.00;100184.64;1785396;80;20975;-75
2022/10/12 00:28:07;;;;;;;12.03;6.72;;;;;;;8.28;100.00;100189.80;1789986;80;21000;-72
2022/10/12 00:30:33;;;;;;;;;;;;;;;8.24;100.00;100179.64;1769481;81;21476;-73
2022/10/12 00:33:00;;;;;;;13.40;6.55;;;;;;;8.20;100.00;100189.33;1768963;79;20114;-72
2022/10/12 00:35:29;;;;;;;13.18;7.28;;;;;;;8.05;100.00;100190.41;1766330;79;21086;-72
2022/10/12 00:37:56;;;;;;;12.45;6.87;;;;;;;7.97;100.00;100191.66;1769210;79;21508;-72
2022/10/12 00:40:22;;;;;;;11.97;6.62;;;;;;;7.94;100.00;100184.81;1764244;79;20979;-72
2022/10/12 00:42:49;;;;;;;13.18;6.67;;;;;;;7.95;100.00;100191.89;1770646;79;21459;-72
2022/10/12 00:45:16;;;;;;;12.98;6.62;;;;;;;7.94;100.00;100191.59;1772368;79;20929;-73
2022/10/12 00:47:55;;;;;;;12.88;6.80;;;;;;;7.91;100.00;100187.19;1783267;78;21088;-72
2022/10/12 00:50:27;;;;;;;11.35;7.22;;;;;;;7.85;100.00;100189.52;1787305;78;21563;-73
2022/10/12 00:53:07;;;;;;;10.55;7.62;;;;;;;7.77;100.00;100196.16;1803333;78;21037;-72
2022/10/12 00:55:37;;;;;;;13.65;7.95;;;;;;;7.75;100.00;100194.23;1792558;80;22048;-72
2022/10/12 00:58:04;;;;;;;12.28;7.47;;;;;;;7.74;100.00;100195.29;1791649;78;21097;-75
2022/10/12 01:00:31;;;;;;;13.93;7.87;;;;;;;7.75;100.00;100202.89;1781728;79;20942;-75
2022/10/12 01:02:58;;;;;;;15.08;8.30;;;;;;;7.72;100.00;100200.11;1790174;79;21662;-75
2022/10/12 01:05:26;;;;;;;14.33;8.68;;;;;;;7.67;100.00;100202.73;1783929;79;20989;-74
2022/10/12 01:07:52;;;;;;;12.82;7.87;;;;;;;7.63;100.00;100210.23;1782019;79;21541;-76
2022/10/12 01:10:20;;;;;;;12.50;7.97;;;;;;;7.62;100.00;100205.86;1806332;79;20963;-76
2022/10/12 01:12:46;;;;;;;13.50;7.47;;;;;;;7.66;100.00;100205.67;1770809;79;21077;-76
2022/10/12 01:15:12;;;;;;;;;;;;;;;7.66;100.00;100205.15;1798261;79;20970;-76
2022/10/12 01:17:57;;;;;;;13.38;7.70;;;;;;;7.66;100.00;100208.39;1772577;79;20139;-76
2022/10/12 01:20:35;;;;;;;12.58;7.45;;;;;;;7.55;100.00;100207.36;1781739;80;21458;-76
2022/10/12 01:23:25;;;;;;;14.13;7.08;;;;;;;7.46;100.00;100215.59;1802381;79;21505;-76
2022/10/12 01:26:33;;;;;;;15.80;7.47;;;;;;;7.44;100.00;100209.05;1788135;79;21477;-76
2022/10/12 01:29:45;;;;;;;12.18;6.87;;;;;;;7.44;100.00;100209.56;1791271;79;21077;-76
2022/10/12 01:32:25;;;;;;;11.65;6.70;;;;;;;7.43;100.00;100216.07;1775569;80;21072;-76
2022/10/12 01:35:06;;;;;;;14.87;8.23;;;;;;;7.35;100.00;100215.08;1775166;80;21469;-76
2022/10/12 01:38:01;;;;;;;14.28;7.70;;;;;;;7.26;100.00;100218.67;1770933;79;21025;-76
2022/10/12 01:40:45;;;;;;;11.45;7.15;;;;;;;7.19;100.00;100220.69;1789357;80;21437;-76
2022/10/12 01:43:11;;;;;;;10.72;7.33;;;;;;;7.17;100.00;100222.83;1775696;80;21046;-76
2022/10/12 01:45:38;;;;;;;12.53;6.75;;;;;;;7.17;100.00;100218.77;1767440;80;20978;-76
2022/10/12 01:48:06;;;;;;;10.75;6.87;;;;;;;7.17;100.00;100225.53;1786034;80;21084;-76
2022/10/12 01:50:44;;;;;;;12.95;7.30;;;;;;;7.14;100.00;100226.02;1787820;80;20943;-76
2022/10/12 01:53:33;;;;;;;13.70;7.33;;;;;;;7.09;100.00;100221.83;1788501;80;21393;-75
2022/10/12 01:56:13;;;;;;;10.50;7.20;;;;;;;7.08;100.00;100219.38;1775851;80;20970;-76
2022/10/12 01:59:15;;;;;;;10.32;6.75;;;;;;;7.09;100.00;100216.41;1774562;80;21066;-76
2022/10/12 02:01:45;;;;;;;12.18;6.95;;;;;;;7.11;100.00;100217.55;1768263;79;20962;-76
2022/10/12 02:04:25;;;;;;;11.65;7.60;;;;;;;7.06;100.00;100222.31;1780687;80;20969;-76
2022/10/12 02:07:02;;;;;;;13.80;7.62;;;;;;;6.99;100.00;100216.19;1762604;80;20985;-76
2022/10/12 02:09:32;;;;;;;16.73;7.45;;;;;;;6.93;100.00;100218.50;1788319;80;21022;-74
2022/10/12 02:12:06;;;;;;;17.45;7.95;;;;;;;6.92;100.00;100230.37;1784617;79;20935;-72
2022/10/12 02:14:38;;;;;;;12.43;7.90;;;;;;;6.93;100.00;100233.39;1776854;80;21007;-72
2022/10/12 02:17:08;;;;;;;14.30;7.47;;;;;;;6.95;100.00;100240.73;1770884;80;21055;-72
2022/10/12 02:19:39;;;;;;;11.20;7.95;;;;;;;6.96;100.00;100239.67;1769438;80;21014;-72
2022/10/12 02:22:06;;;;;;;14.05;8.78;;;;;;;6.94;100.00;100241.25;1780148;80;21088;-72
2022/10/12 02:24:34;;;;;;;13.55;8.38;;;;;;;6.90;100.00;100246.87;1765824;79;20974;-72
2022/10/12 02:27:00;;;;;;;11.00;8.00;;;;;;;6.90;100.00;100246.04;1780110;80;21062;-71
2022/10/12 02:29:30;;;;;;;;;;;;;;;6.91;100.00;100244.96;1792906;79;21597;-71
2022/10/12 02:32:04;;;;;;;10.90;7.47;;;;;;;6.91;100.00;100250.37;1785976;79;20445;-72
2022/10/12 02:34:44;;;;;;;11.48;7.50;;;;;;;6.86;100.00;100247.56;1795783;79;20967;-72
2022/10/12 02:37:31;;;;;;;12.55;8.25;;;;;;;6.83;100.00;100252.92;1794292;79;21074;-72
2022/10/12 02:40:31;;;;;;;12.65;9.18;;;;;;;6.79;100.00;100249.56;1790509;79;20991;-72
2022/10/12 02:43:11;;;;;;;12.37;7.75;;;;;;;6.72;100.00;100255.62;1778492;79;21057;-72
2022/10/12 02:45:41;;;;;;;11.70;7.62;;;;;;;6.71;100.00;100263.43;1783430;79;21001;-72
2022/10/12 02:48:08;;;;;;;11.70;7.12;;;;;;;6.75;100.00;100265.97;1783932;80;21515;-72
2022/10/12 02:50:35;;;;;;;13.35;7.75;;;;;;;6.78;100.00;100270.91;1763993;80;20973;-72
2022/10/12 02:53:02;;;;;;;12.78;7.70;;;;;;;6.76;100.00;100271.16;1787441;80;21003;-72
2022/10/12 02:55:30;;;;;;;12.03;7.97;;;;;;;6.73;100.00;100268.09;1762100;80;21451;-72
2022/10/12 02:57:56;;;;;;;13.00;7.40;;;;;;;6.69;100.00;100272.32;1772151;80;21047;-72
2022/10/12 03:00:23;;;;;;;9.90;7.37;;;;;;;6.67;100.00;100273.89;1765132;80;20935;-72
2022/10/12 03:02:49;;;;;;;13.48;7.33;;;;;;;6.69;100.00;100275.86;1790094;79;21034;-72
2022/10/12 03:05:17;;;;;;;15.32;7.92;;;;;;;6.69;100.00;100276.38;1790201;79;20919;-75
2022/10/12 03:07:45;;;;;;;11.08;7.22;;;;;;;6.69;100.00;100276.38;1719189;82;21436;-75
2022/10/12 03:10:11;;;;;;;11.73;7.92;;;;;;;6.65;100.00;100281.44;1746959;82;20981;-75
2022/10/12 03:12:38;;;;;;;13.38;8.35;;;;;;;6.59;100.00;100291.81;1727890;82;21053;-71
2022/10/12 03:15:05;;;;;;;11.43;8.15;;;;;;;6.55;100.00;100283.06;1726677;82;21960;-71
2022/10/12 03:17:33;;;;;;;13.35;8.20;;;;;;;6.53;100.00;100292.75;1731479;81;21067;-71
2022/10/12 03:19:59;;;;;;;12.25;7.58;;;;;;;6.55;100.00;100292.00;1728428;82;21559;-72
2022/10/12 03:22:26;;;;;;;12.85;7.65;;;;;;;6.55;100.00;100291.17;1728911;82;21468;-71
2022/10/12 03:24:54;;;;;;;13.62;8.00;;;;;;;6.54;100.00;100290.88;1742016;82;21041;-71
2022/10/12 03:27:20;;;;;;;12.30;8.43;;;;;;;6.47;100.00;100290.45;1727313;81;21069;-71
2022/10/12 03:29:47;;;;;;;11.80;8.03;;;;;;;6.47;100.00;100291.80;1718225;82;21018;-71
2022/10/12 03:32:14;;;;;;;12.13;8.05;;;;;;;6.49;100.00;100298.31;1740571;82;21560;-72
2022/10/12 03:34:42;;;;;;;11.05;8.13;;;;;;;6.49;100.00;100304.56;1742849;82;21516;-73
2022/10/12 03:37:08;;;;;;;;;;;;;;;6.52;100.00;100291.64;1735270;82;21049;-74
2022/10/12 03:39:35;;;;;;;14.13;8.95;;;;;;;6.50;100.00;100300.80;1728026;82;20136;-73
2022/10/12 03:42:01;;;;;;;12.03;8.50;;;;;;;6.38;100.00;100295.05;1737776;82;21109;-73
2022/10/12 03:44:28;;;;;;;14.68;9.00;;;;;;;6.33;100.00;100298.47;1739524;82;21033;-73
2022/10/12 03:46:55;;;;;;;16.42;8.70;;;;;;;6.32;100.00;100308.16;1730247;81;21017;-73
2022/10/12 03:49:21;;;;;;;10.82;8.43;;;;;;;6.34;100.00;100312.27;1758022;81;21466;-71
2022/10/12 03:51:47;;;;;;;13.48;8.20;;;;;;;6.35;100.00;100309.04;1741498;81;21516;-71
2022/10/12 03:54:14;;;;;;;13.08;8.85;;;;;;;6.36;100.00;100299.88;1743759;81;21434;-71
2022/10/12 03:56:41;;;;;;;12.00;8.20;;;;;;;6.35;100.00;100306.33;1700315;82;21528;-71
2022/10/12 03:59:08;;;;;;;13.35;8.95;;;;;;;6.30;100.00;100308.92;1717334;82;21021;-71
2022/10/12 04:01:34;;;;;;;13.05;9.13;;;;;;;6.31;100.00;100311.37;1754263;81;20992;-71
2022/10/12 04:04:01;;;;;;;13.85;9.33;;;;;;;6.36;100.00;100314.75;1751561;81;21022;-75
2022/10/12 04:06:27;;;;;;;;;;;;;;;6.38;100.00;100313.45;1754628;80;20968;-75
2022/10/12 04:08:54;;;;;;;15.15;8.95;;;;;;;6.41;100.00;100315.70;1759877;81;20086;-75
2022/10/12 04:11:20;;;;;;;10.38;8.05;;;;;;;6.40;100.00;100313.23;1760534;81;20978;-75
2022/10/12 04:13:48;;;;;;;12.13;9.13;;;;;;;6.39;100.00;100320.52;1745904;80;21549;-75
2022/10/12 04:16:15;;;;;;;14.35;9.33;;;;;;;6.35;100.00;100322.55;1741310;81;21025;-75
2022/10/12 04:18:42;;;;;;;15.18;9.13;;;;;;;6.29;100.00;100317.55;1757419;81;21566;-75
2022/10/12 04:21:12;;;;;;;14.20;9.78;;;;;;;6.27;100.00;100325.05;1760899;80;21387;-74
2022/10/12 04:23:40;;;;;;;13.68;9.90;;;;;;;6.28;100.00;100325.88;1731561;83;21032;-74
2022/10/12 04:26:07;;;;;;;15.72;9.33;;;;;;;6.31;100.00;100328.95;1733059;81;20969;-75
2022/10/12 04:28:34;;;;;;;14.15;8.58;;;;;;;6.31;100.00;100330.30;1760387;81;21557;-75
2022/10/12 04:31:01;;;;;;;14.35;9.05;;;;;;;6.31;100.00;100321.36;1759096;80;21451;-75
2022/10/12 04:33:27;;;;;;;;;;;;;;;6.28;100.00;100326.71;1761168;80;21046;-75
2022/10/12 04:35:54;;;;;;;14.47;9.83;;;;;;;6.22;100.00;100324.94;1772634;80;20403;-75
2022/10/12 04:38:20;;;;;;;13.53;8.98;;;;;;;6.11;100.00;100323.52;1778261;79;21121;-75
2022/10/12 04:40:48;;;;;;;13.28;9.73;;;;;;;6.10;100.00;100330.80;1773469;79;20953;-75
2022/10/12 04:43:15;;;;;;;13.85;9.35;;;;;;;6.17;100.00;100338.82;1756237;81;21549;-75
2022/10/12 04:45:41;;;;;;;14.43;8.93;;;;;;;6.19;100.00;100349.73;1770640;79;21420;-75
2022/10/12 04:48:08;;;;;;;;;;;;;;;6.22;100.00;100347.08;1760522;79;21564;-75
2022/10/12 04:50:34;;;;;;;14.15;8.80;;;;;;;6.25;100.00;100349.33;1771874;81;20161;-76
2022/10/12 04:53:01;;;;;;;12.63;9.03;;;;;;;6.25;100.00;100346.09;1773110;81;21521;-75
2022/10/12 04:55:27;;;;;;;16.32;9.80;;;;;;;6.29;100.00;100351.35;1771313;80;20950;-75
2022/10/12 04:57:53;;;;;;;12.35;9.78;;;;;;;6.30;100.00;100354.89;1755283;79;21069;-75
2022/10/12 05:00:20;;;;;;;15.85;10.55;;;;;;;6.35;100.00;100356.36;1733824;81;20995;-75
2022/10/12 05:02:48;;;;;;;15.68;10.63;;;;;;;6.48;100.00;100365.11;1745208;81;21343;-76
2022/10/12 05:05:15;;;;;;;13.85;10.65;;;;;;;6.59;100.00;100365.41;1761331;80;20950;-76
2022/10/12 05:07:41;;;;;;;;;;;;;;;6.70;100.00;100368.64;1711541;83;21069;-76
2022/10/12 05:10:09;;;;;;;14.58;10.95;;;;;;;6.77;100.00;100364.78;1765391;80;20100;-75
2022/10/12 05:12:35;;;;;;;14.53;11.18;;;;;;;6.75;100.00;100376.38;1758289;81;21455;-76
2022/10/12 05:15:04;;;;;;;17.55;11.50;;;;;;;6.85;100.00;100375.81;1775942;80;20946;-76
2022/10/12 05:17:31;;;;;;;16.93;12.28;;;;;;;6.98;100.00;100377.77;1782071;80;21026;-76
2022/10/12 05:19:57;;;;;;;15.50;12.07;;;;;;;7.12;100.00;100385.70;1707035;81;22044;-76
2022/10/12 05:22:25;;;;;;;16.05;11.38;;;;;;;7.24;100.00;100381.11;1763430;80;21021;-76
2022/10/12 05:24:51;;;;;;;16.10;11.88;;;;;;;7.34;100.00;100385.41;1722997;81;21014;-77
2022/10/12 05:27:17;;;;;;;;;;;;;;;7.36;100.00;100382.78;1765303;80;21033;-73
2022/10/12 05:29:44;;;;;;;15.43;11.10;;;;;;;7.40;100.00;100383.94;1735108;81;20140;-72
2022/10/12 05:32:11;;;;;;;16.02;10.82;;;;;;;7.44;100.00;100393.24;1772401;80;21033;-71
2022/10/12 05:34:38;;;;;;;15.85;10.60;;;;;;;7.54;100.00;100391.84;1740926;81;21033;-76
2022/10/12 05:37:05;;;;;;;17.40;11.30;;;;;;;7.62;100.00;100394.17;1754705;81;21053;-74
2022/10/12 05:39:31;;;;;;;17.20;11.90;;;;;;;7.70;100.00;100397.89;1741893;81;21124;-75
2022/10/12 05:41:58;;;;;;;15.88;11.97;;;;;;;7.76;100.00;100401.03;1744230;81;21464;-74
2022/10/12 05:44:24;;;;;;;16.07;11.50;;;;;;;7.79;100.00;100399.20;1742183;81;21039;-75
2022/10/12 05:46:51;;;;;;;15.23;10.70;;;;;;;7.88;100.00;100404.53;1742432;81;20986;-75
2022/10/12 05:49:17;;;;;;;;;;;;;;;8.05;100.00;100401.91;1766785;81;21009;-75
2022/10/12 05:51:44;;;;;;;14.43;10.25;;;;;;;8.15;100.00;100404.86;1760347;80;20098;-75
2022/10/12 05:54:11;;;;;;;13.15;10.53;;;;;;;8.16;100.00;100412.73;1774056;80;21049;-75
2022/10/12 05:56:40;;;;;;;16.30;10.43;;;;;;;8.25;100.00;100419.98;1705996;83;20987;-75
2022/10/12 05:59:08;;;;;;;16.75;10.15;;;;;;;8.33;100.00;100424.51;1777961;80;21016;-74
2022/10/12 06:01:34;;;;;;;;;;;;;;;8.50;100.00;100430.81;1764448;81;20958;-72
2022/10/12 06:04:01;;;;;;;15.45;11.00;;;;;;;8.67;100.00;100424.64;1760748;81;20130;-78
2022/10/12 06:06:27;;;;;;;15.83;11.25;;;;;;;8.69;100.00;100427.92;1793578;79;20960;-77
2022/10/12 06:08:54;;;;;;;13.95;11.00;;;;;;;8.80;100.00;100423.80;1758825;80;21100;-80
2022/10/12 06:11:21;;;;;;;17.50;10.85;;;;;;;8.90;100.00;100434.02;1784597;79;21030;-76
2022/10/12 06:13:47;;;;;;;;;;;;;;;9.06;100.00;100439.20;1796274;79;21065;-76
2022/10/12 06:16:14;;;;;;;15.18;10.18;;;;;;;9.21;100.00;100438.91;1783423;79;20131;-78
2022/10/12 06:18:41;;;;;;;15.70;11.10;;;;;;;9.26;100.00;100440.37;1776554;79;21070;-77
2022/10/12 06:21:07;;;;;;;17.17;11.15;;;;;;;9.36;100.00;100447.86;1783299;79;21041;-78
2022/10/12 06:23:34;;;;;;;19.00;10.28;;;;;;;9.41;100.00;100443.87;1787368;79;21042;-76
2022/10/12 06:26:01;;;;;;;;;;;;;;;9.50;100.00;100441.85;1789978;79;21497;-75
2022/10/12 06:28:27;;;;;;;14.73;10.60;;;;;;;9.62;100.00;100446.38;1783801;79;20135;-78
2022/10/12 06:30:57;;;;;;;15.28;10.82;;;;;;;9.63;100.00;100443.43;1780913;79;20958;-75
2022/10/12 06:33:25;;;;;;;16.85;11.20;;;;;;;9.64;100.00;100446.41;1786412;79;21044;-77
2022/10/12 06:35:53;;;;;;;13.95;10.45;;;;;;;9.63;100.00;100453.48;1769478;80;20985;-76
2022/10/12 06:38:20;;;;;;;15.90;11.15;;;;;;;9.68;100.00;100454.36;1794665;79;20987;-75
2022/10/12 06:40:46;;;;;;;;;;;;;;;9.75;100.00;100457.73;1790469;79;21695;-75
2022/10/12 06:43:13;;;;;;;14.40;10.78;;;;;;;9.65;100.00;100452.14;1791849;79;20520;-74
2022/10/12 06:45:39;;;;;;;15.93;11.48;;;;;;;9.51;100.00;100458.98;1788755;79;20997;-73
2022/10/12 06:48:06;;;;;;;18.15;11.50;;;;;;;9.59;100.00;100461.83;1787598;79;21033;-70
2022/10/12 06:50:33;;;;;;;;;;;;;;;9.65;100.00;100460.30;1797305;78;21009;-73
2022/10/12 06:52:59;;;;;;;15.72;11.68;;;;;;;9.67;100.00;100459.50;1792261;79;20538;-70
2022/10/12 06:55:25;;;;;;;16.35;10.85;;;;;;;9.66;100.00;100463.31;1786663;80;21548;-73
2022/10/12 06:57:52;;;;;;;;;;;;;;;9.72;100.00;100470.47;1795169;79;21670;-72
2022/10/12 07:00:18;;;;;;;17.37;11.83;;;;;;;9.73;100.00;100463.97;1783703;80;20155;-74
2022/10/12 07:02:49;;;;;;;17.23;12.37;;;;;;;9.72;100.00;100465.56;1764381;80;21096;-74
2022/10/12 07:05:15;;;;;;;17.25;10.82;;;;;;;9.79;100.00;100464.33;1786428;80;21120;-74
2022/10/12 07:07:42;;;;;;;14.10;10.68;;;;;;;10.00;100.00;100462.72;1788127;80;21065;-73
2022/10/12 07:10:10;;;;;;;14.55;11.15;;;;;;;10.14;100.00;100466.77;1786223;80;21524;-72
2022/10/12 07:12:37;;;;;;;13.65;11.25;;;;;;;10.34;100.00;100467.06;1789154;78;21652;-73
2022/10/12 07:15:07;;;;;;;17.20;11.38;;;;;;;10.48;100.00;100471.58;1774967;80;21056;-72
2022/10/12 07:17:35;;;;;;;19.17;11.68;;;;;;;10.63;100.00;100469.02;1751470;80;21077;-73
2022/10/12 07:20:02;;;;;;;15.90;11.63;;;;;;;10.80;100.00;100472.52;1789272;78;21610;-74
2022/10/12 07:22:29;;;;;;;16.32;11.88;;;;;;;11.04;100.00;100478.48;1792936;78;21084;-72
2022/10/12 07:27:28;;;;;;;13.30;10.32;;;;;;;11.36;100.00;100462.17;1795393;78;22824;-70
2022/10/12 07:29:54;;;;;;;13.62;9.90;;;;;;;11.49;100.00;100470.73;1775560;79;21150;-70
2022/10/12 07:32:20;;;;;;;;;;;;;;;11.66;100.00;100473.85;1775010;78;21011;-69
2022/10/12 07:34:47;;;;;;;15.30;10.63;;;;;;;11.75;100.00;100473.16;1762131;80;20130;-70
2022/10/12 07:37:14;;;;;;;;;;;;;;;11.73;100.00;100470.39;1736981;80;22145;-71
2022/10/12 07:39:41;;;;;;;12.88;9.90;;;;;;;11.92;100.00;100465.63;1779400;80;20975;-71
2022/10/12 07:42:08;;;;;;;14.50;9.05;;;;;;;12.14;100.00;100461.41;1762328;80;21075;-70
2022/10/12 07:44:36;;;;;;;12.50;9.58;;;;;;;12.32;100.00;100460.96;1735806;80;21116;-71
2022/10/12 11:18:18;;;;;;;6.03;2.10;;;;;;;12.59;100.00;100391.15;1773850;79;22219;-69
2022/10/12 11:21:03;;;;;;;9.33;2.22;;;;;;;12.59;100.00;100399.34;1726791;81;21030;-69
2022/10/12 11:23:41;;;;;;;9.25;2.35;;;;;;;12.69;100.00;100395.80;1742440;81;21077;-70
2022/10/12 11:26:25;;;;;;;6.85;2.30;;;;;;;12.76;100.00;100395.00;1744612;81;21066;-69
2022/10/12 11:28:53;;;;;;;7.00;2.50;;;;;;;12.80;100.00;100393.37;1740494;81;21034;-71
2022/10/12 11:31:38;;;;;;;12.68;4.65;;;;;;;12.83;100.00;100396.39;1752905;81;21093;-68
2022/10/12 11:34:08;;;;;;;12.10;4.70;;;;;;;12.99;100.00;100393.14;1746464;80;21357;-69
2022/10/12 11:36:37;;;;;;;12.15;4.30;;;;;;;13.25;100.00;100391.28;1737111;80;21061;-69
2022/10/12 11:39:06;;;;;;;9.60;4.00;;;;;;;13.45;100.00;100394.83;1747121;81;21042;-69
2022/10/12 11:41:45;;;;;;;9.28;3.40;;;;;;;13.57;100.00;100391.00;1742941;81;21070;-68
2022/10/12 11:44:38;;;;;;;12.75;3.90;;;;;;;13.60;100.00;100397.28;1744815;81;21612;-68
2022/10/12 11:47:33;;;;;;;14.78;5.97;;;;;;;13.65;100.00;100393.97;1739139;80;21112;-68
2022/10/12 12:38:35;;;;;;;7.03;1.90;;;;;;;13.88;100.00;100388.47;1697354;82;21047;-69
2022/10/12 12:41:13;;;;;;;7.22;1.70;;;;;;;13.74;100.00;100381.39;1719254;82;21016;-69
2022/10/12 12:44:00;;;;;;;8.95;2.50;;;;;;;13.75;100.00;100387.66;1714130;81;21027;-69
2022/10/12 12:46:58;;;;;;;8.88;2.52;;;;;;;13.82;100.00;100375.33;1710327;82;21657;-69
2022/10/12 12:49:47;;;;;;;8.68;1.95;;;;;;;13.93;100.00;100381.05;1722279;81;21063;-68
2022/10/12 12:52:31;;;;;;;7.12;2.17;;;;;;;14.08;100.00;100382.92;1725738;80;21163;-69
2022/10/12 12:55:19;;;;;;;6.62;2.10;;;;;;;14.19;100.00;100373.58;1715587;82;21058;-68
2022/10/12 12:58:24;;;;;;;6.97;2.40;;;;;;;14.29;100.00;100368.59;1731691;80;21083;-70
2022/10/12 13:01:15;;;;;;;10.43;3.10;;;;;;;14.39;100.00;100372.69;1739873;81;21569;-69
2022/10/12 13:04:11;;;;;;;9.20;2.80;;;;;;;14.44;100.00;100370.76;1730702;80;21039;-71
2022/10/12 13:07:03;;;;;;;5.87;2.20;;;;;;;14.39;100.00;100377.62;1687426;83;21178;-69
2022/10/12 13:10:06;;;;;;;6.55;1.90;;;;;;;14.28;100.00;100380.09;1732314;82;21392;-70
2022/10/12 13:12:56;;;;;;;5.47;1.60;;;;;;;14.17;100.00;100386.71;1726950;80;21136;-70
2022/10/12 13:15:53;;;;;;;5.15;1.50;;;;;;;14.01;100.00;100377.47;1721377;81;21282;-70
2022/10/12 13:18:48;;;;;;;5.12;1.57;;;;;;;13.80;100.00;100384.38;1696002;82;21640;-70
2022/10/12 13:21:24;;;;;;;5.40;1.50;;;;;;;13.62;100.00;100378.66;1730036;82;21068;-69
2022/10/12 13:24:16;;;;;;;6.05;2.15;;;;;;;13.48;100.00;100379.77;1727952;82;20984;-70
2022/10/12 13:26:46;;;;;;;6.67;2.45;;;;;;;13.38;100.00;100379.79;1738795;80;21163;-69
2022/10/12 13:29:18;;;;;;;12.13;2.75;;;;;;;13.26;100.00;100375.95;1728148;82;21490;-70
2022/10/12 13:31:45;;;;;;;6.83;2.75;;;;;;;13.19;100.00;100375.41;1737966;80;21057;-70
2022/10/12 13:34:31;;;;;;;9.28;3.08;;;;;;;13.16;100.00;100376.50;1736170;81;21514;-69
2022/10/12 13:37:03;;;;;;;39.27;11.55;;;;;;;13.08;100.00;100386.03;1725549;82;21472;-70
2022/10/12 13:39:32;;;;;;;24.52;6.62;;;;;;;13.00;100.00;100384.41;1723729;82;21031;-69
2022/10/12 13:42:00;;;;;;;11.80;2.87;;;;;;;12.96;100.00;100381.39;1682164;83;21560;-68
2022/10/12 13:44:33;;;;;;;11.55;4.03;;;;;;;12.92;100.00;100389.31;1696673;82;20992;-69
2022/10/12 13:47:00;;;;;;;8.38;2.40;;;;;;;12.88;100.00;100386.02;1697332;83;21586;-70
2022/10/12 13:49:32;;;;;;;7.95;2.60;;;;;;;12.82;100.00;100392.58;1704396;83;21043;-69
2022/10/12 13:52:01;;;;;;;12.60;3.55;;;;;;;12.79;100.00;100393.09;1701572;82;21139;-68
2022/10/12 13:54:39;;;;;;;7.45;2.15;;;;;;;12.77;100.00;100392.55;1698248;83;21036;-67
2022/10/12 13:57:30;;;;;;;6.35;2.40;;;;;;;12.76;100.00;100388.17;1722565;81;21106;-68
2022/10/12 14:00:16;;;;;;;7.97;2.22;;;;;;;12.76;100.00;100391.73;1739710;82;21531;-68
2022/10/12 14:02:59;;;;;;;5.45;2.00;;;;;;;12.76;100.00;100390.91;1730212;81;21168;-68
2022/10/12 14:05:28;;;;;;;9.28;2.08;;;;;;;12.77;100.00;100393.92;1730046;82;21041;-68
2022/10/12 14:08:08;;;;;;;8.30;2.33;;;;;;;12.80;100.00;100385.17;1732574;82;22298;-68
2022/10/12 14:10:35;;;;;;;6.17;2.12;;;;;;;12.82;100.00;100385.75;1714525;81;21060;-68
2022/10/12 14:13:03;;;;;;;6.40;1.90;;;;;;;12.83;100.00;100386.00;1712088;82;21082;-69
2022/10/12 14:15:34;;;;;;;6.58;2.30;;;;;;;12.83;100.00;100393.66;1700207;83;21056;-69
2022/10/12 14:18:00;;;;;;;5.85;2.33;;;;;;;12.81;100.00;100387.66;1695548;82;21020;-68
2022/10/12 14:20:36;;;;;;;8.73;2.80;;;;;;;12.80;100.00;100383.81;1702745;83;20968;-68
2022/10/12 14:23:06;;;;;;;9.18;2.60;;;;;;;12.76;100.00;100386.27;1713903;81;21337;-69
2022/10/12 14:25:32;;;;;;;8.43;2.35;;;;;;;12.72;100.00;100391.16;1741075;81;21846;-69
2022/10/12 14:28:04;;;;;;;8.15;2.52;;;;;;;12.68;100.00;100392.82;1731485;82;21051;-69
2022/10/12 14:30:34;;;;;;;5.97;2.17;;;;;;;12.62;100.00;100389.23;1723265;80;20985;-68
2022/10/12 14:33:15;;;;;;;9.90;2.22;;;;;;;12.56;100.00;100390.32;1740629;81;21154;-68
2022/10/12 14:35:46;;;;;;;5.50;1.72;;;;;;;12.55;100.00;100394.67;1728634;82;21023;-67
2022/10/12 14:38:37;;;;;;;6.87;2.00;;;;;;;12.49;100.00;100399.31;1683899;82;22359;-69
2022/10/12 14:41:35;;;;;;;6.75;1.80;;;;;;;12.45;100.00;100392.74;1712184;82;21104;-67
2022/10/12 14:44:12;;;;;;;6.33;1.77;;;;;;;12.38;100.00;100394.91;1708234;83;21075;-67
2022/10/12 14:46:54;;;;;;;6.90;2.05;;;;;;;12.32;100.00;100394.08;1685491;84;21087;-67
2022/10/12 14:49:28;;;;;;;6.42;1.80;;;;;;;12.26;100.00;100404.67;1696996;82;21019;-68
2022/10/12 14:51:55;;;;;;;9.28;1.90;;;;;;;12.17;100.00;100399.46;1701509;82;21620;-68
2022/10/12 14:54:22;;;;;;;9.33;2.10;;;;;;;12.11;100.00;100403.27;1707722;83;21050;-68
2022/10/12 14:56:48;;;;;;;5.70;1.90;;;;;;;12.03;100.00;100404.30;1708468;82;21032;-68
2022/10/12 14:59:15;;;;;;;5.72;2.22;;;;;;;11.96;100.00;100410.00;1699516;82;21051;-68
2022/10/12 15:01:42;;;;;;;6.62;2.35;;;;;;;11.88;100.00;100406.39;1708610;82;21173;-68
2022/10/12 15:04:11;;;;;;;6.78;2.12;;;;;;;11.82;100.00;100412.91;1701231;83;21916;-68
2022/10/12 15:06:39;;;;;;;5.85;2.10;;;;;;;11.73;100.00;100411.21;1708555;83;21473;-69
2022/10/12 15:09:05;;;;;;;8.45;2.70;;;;;;;11.66;100.00;100417.94;1702848;83;21118;-68
2022/10/12 15:11:32;;;;;;;8.68;3.67;;;;;;;11.60;100.00;100421.19;1700282;83;21083;-66
2022/10/12 15:14:00;;;;;;;8.23;3.10;;;;;;;11.54;100.00;100424.14;1710448;83;21075;-69
2022/10/12 15:16:27;;;;;;;9.43;5.05;;;;;;;11.49;100.00;100422.19;1711411;83;22355;-67
2022/10/12 15:18:56;;;;;;;14.78;6.33;;;;;;;11.48;100.00;100425.99;1692587;82;21112;-68
2022/10/12 15:21:22;;;;;;;13.20;5.65;;;;;;;11.40;100.00;100423.23;1689446;83;21130;-69
2022/10/12 15:23:49;;;;;;;11.03;6.50;;;;;;;11.34;100.00;100423.42;1674946;85;21050;-69
2022/10/12 15:26:21;;;;;;;12.98;6.45;;;;;;;11.26;100.00;100426.11;1689503;82;21130;-68
2022/10/12 15:28:48;;;;;;;14.03;6.08;;;;;;;11.20;100.00;100431.22;1709607;83;21095;-69
2022/10/12 15:31:15;;;;;;;15.85;8.48;;;;;;;11.11;100.00;100434.68;1698396;82;21430;-69
2022/10/12 15:33:42;;;;;;;20.40;9.70;;;;;;;10.98;100.00;100439.45;1709907;84;21095;-69
2022/10/12 15:36:10;;;;;;;20.62;11.03;;;;;;;10.88;100.00;100435.80;1705100;82;21551;-70
2022/10/12 15:38:36;;;;;;;19.98;10.58;;;;;;;10.80;100.00;100430.84;1702694;82;21022;-68
2022/10/12 15:41:03;;;;;;;23.25;11.97;;;;;;;10.74;100.00;100439.47;1712323;82;21498;-69
2022/10/12 15:43:30;;;;;;;;;;;;;;;10.70;100.00;100438.34;1733335;82;21160;-69
2022/10/12 15:45:58;;;;;;;26.20;11.53;;;;;;;10.64;100.00;100442.62;1725948;82;20424;-69
2022/10/12 15:48:26;;;;;;;24.63;12.28;;;;;;;10.43;100.00;100447.84;1711076;82;21660;-69
2022/10/12 15:50:53;;;;;;;28.10;15.00;;;;;;;10.31;100.00;100451.74;1707923;82;21001;-69
2022/10/12 15:53:23;;;;;;;27.80;15.50;;;;;;;10.19;100.00;100451.88;1722243;82;21382;-67
2022/10/12 15:55:51;;;;;;;29.85;15.72;;;;;;;10.11;100.00;100452.81;1724369;82;21058;-66
2022/10/12 15:58:17;;;;;;;26.00;15.25;;;;;;;9.99;100.00;100455.62;1725910;82;21098;-69
2022/10/12 16:00:45;;;;;;;24.52;14.40;;;;;;;9.91;100.00;100460.98;1731192;82;21011;-68